Portada
METAR-TAF:

METAR-TAF

Aeropuertos :

Chugiak, Alaska, Estados Unidos

latitud: 61-25N, longitud: 149-31W, altitud: 29 m

Observación

El informe se hizo hace 53 minutos, a las 11:56 UTC
Viento calma
Temperatura -3°C
Humedad 93%
Presión 999 hPa
Visibilidad: 9.7 km
Escasas nubes a una altura de 1000 ft
Cielo cubierto a una altura de 2500 ft
poca nieve, neblina

METAR: PABV 031156Z AUTO 00000KT 6SM -SN BR FEW010 OVC025 M03/M04 A2951 RMK AO2 SLP000 P0000 60001 70005 T10331044 11033 21039 51012 FZRANO

Hora: 03:49 (12:49 UTC)


TAF: falta

Observaciones y pronósticos meteorológicos de más de 4000 aeropuertos (mensajes METAR y TAF).

Los puntos amarillos y rojos representan las estaciones disponibles.

Ponga el ratón en el punto deseado para ver el nombre de la estación.

Haga clic para ver las observaciones y los pronósticos meteorológicos.

Para cambiar el mapa : haga clic en los botones verdes con una cruz de color negro para hacer un zoom, en el botón verde con un guión para alejar o en las flechas verdes para mapas adyacentes.


METAR-TAF: